Time;durP1;ratioP1;P1;durP2;ratioP2;P2;SDS_P1;SDS_P2;PMS_P1;PMS_P2;Temp;Humidity;BMP_temperature;BMP_pressure;BME280_temperature;BME280_humidity;BME280_pressure;Samples;Min_cycle;Max_cycle;Signal;HPM_P1;HPM_P2
2022/05/24 00:00:48;;;;;;;1.98;1.13;;;;;;;14.77;100.00;94591.41;5037818;28;20601;-81
2022/05/24 00:03:14;;;;;;;1.00;1.00;;;;;;;14.70;100.00;94598.41;5021585;28;20195;-80
2022/05/24 00:05:39;;;;;;;0.75;0.57;;;;;;;14.66;100.00;94600.59;5019887;28;20655;-80
2022/05/24 00:08:06;;;;;;;0.82;0.80;;;;;;;14.68;100.00;94588.16;5008903;28;20185;-82
2022/05/24 00:10:32;;;;;;;0.88;0.88;;;;;;;14.65;100.00;94590.31;5027520;28;20188;-81
2022/05/24 00:12:58;;;;;;;0.63;0.60;;;;;;;14.70;100.00;94588.75;5043439;28;20209;-82
2022/05/24 00:15:30;;;;;;;1.20;0.77;;;;;;;14.56;100.00;94596.72;5009703;28;20643;-81
2022/05/24 00:17:56;;;;;;;1.40;1.20;;;;;;;14.49;100.00;94595.88;5059804;28;20213;-79
2022/05/24 00:20:25;;;;;;;2.07;1.10;;;;;;;14.54;100.00;94589.09;5007460;28;20186;-81
2022/05/24 00:22:51;;;;;;;1.55;1.00;;;;;;;14.51;100.00;94594.72;5020015;28;20254;-80
2022/05/24 00:25:17;;;;;;;2.67;1.20;;;;;;;14.48;100.00;94594.28;5050377;28;20214;-80
2022/05/24 00:27:42;;;;;;;2.30;1.40;;;;;;;14.52;100.00;94588.50;5001558;28;20209;-79
2022/05/24 00:30:08;;;;;;;4.50;1.40;;;;;;;14.50;100.00;94580.03;5023710;28;20174;-81
2022/05/24 00:32:33;;;;;;;1.90;1.67;;;;;;;14.34;100.00;94581.16;4982409;28;20218;-79
2022/05/24 00:34:59;;;;;;;3.22;1.55;;;;;;;14.35;100.00;94587.16;4982625;28;20186;-80
2022/05/24 00:37:25;;;;;;;1.87;1.70;;;;;;;14.32;100.00;94596.22;4982029;28;20211;-80
2022/05/24 00:39:50;;;;;;;2.57;1.90;;;;;;;14.23;100.00;94594.75;4998799;28;20588;-80
2022/05/24 00:42:20;;;;;;;1.73;1.50;;;;;;;14.26;100.00;94598.78;4982818;28;20266;-80
2022/05/24 00:45:05;;;;;;;2.75;1.88;;;;;;;14.32;100.00;94588.38;4997962;28;20226;-80
2022/05/24 00:47:36;;;;;;;1.90;1.80;;;;;;;14.28;100.00;94578.50;4966269;28;20272;-80
2022/05/24 00:50:13;;;;;;;1.70;1.60;;;;;;;14.21;100.00;94585.47;4998676;28;20182;-80
2022/05/24 00:52:43;;;;;;;3.27;2.20;;;;;;;14.25;100.00;94581.50;5000035;28;20178;-81
2022/05/24 00:55:11;;;;;;;4.50;2.00;;;;;;;14.20;100.00;94587.28;4999510;28;20175;-80
2022/05/24 00:57:44;;;;;;;5.23;2.17;;;;;;;14.14;100.00;94583.66;4984188;28;20201;-80
2022/05/24 01:00:12;;;;;;;2.53;1.93;;;;;;;14.14;100.00;94580.25;4983242;28;20202;-80
2022/05/24 01:02:37;;;;;;;3.40;2.00;;;;;;;14.07;100.00;94582.00;4982294;28;20532;-80
2022/05/24 01:05:07;;;;;;;2.63;2.40;;;;;;;14.00;100.00;94573.34;4981819;28;20210;-80
2022/05/24 01:07:32;;;;;;;5.10;2.13;;;;;;;14.03;100.00;94578.16;4982272;28;20221;-80
2022/05/24 01:10:04;;;;;;;2.33;2.13;;;;;;;14.01;100.00;94569.72;4998400;28;20183;-80
2022/05/24 01:12:37;;;;;;;3.13;1.90;;;;;;;14.08;100.00;94567.97;4996762;28;20246;-80
2022/05/24 01:15:05;;;;;;;2.13;1.93;;;;;;;14.01;100.00;94564.50;4981071;28;20239;-79
2022/05/24 01:17:30;;;;;;;1.80;1.70;;;;;;;14.12;100.00;94569.16;5014060;28;20265;-80
2022/05/24 01:19:56;;;;;;;2.00;1.70;;;;;;;14.12;100.00;94572.59;4997428;28;20183;-80
2022/05/24 01:22:30;;;;;;;1.90;1.80;;;;;;;14.12;100.00;94572.59;4980318;28;20596;-79
2022/05/24 01:25:03;;;;;;;1.93;1.70;;;;;;;14.10;100.00;94564.16;5004962;28;20224;-79
2022/05/24 01:27:28;;;;;;;1.97;1.77;;;;;;;14.04;100.00;94559.69;5032892;28;20599;-79
2022/05/24 01:29:54;;;;;;;2.13;1.90;;;;;;;14.04;100.00;94548.44;5017906;28;20244;-79
2022/05/24 01:37:47;;;;;;;1.73;1.63;;;;;;;14.09;99.74;94546.88;5020333;28;20209;-80
2022/05/24 01:40:13;;;;;;;2.53;1.70;;;;;;;13.99;99.53;94553.44;5017423;28;20171;-80
2022/05/24 01:42:38;;;;;;;1.50;1.40;;;;;;;13.89;99.05;94557.22;5016776;28;20237;-80
2022/05/24 01:45:21;;;;;;;2.43;1.70;;;;;;;13.93;98.39;94559.44;5017299;28;20675;-79
2022/05/24 01:47:49;;;;;;;1.70;1.60;;;;;;;13.83;98.96;94542.31;5033750;28;20205;-80
2022/05/24 01:50:18;;;;;;;1.73;1.63;;;;;;;13.69;99.79;94547.63;5020591;28;20217;-80
2022/05/24 01:53:06;;;;;;;1.70;1.60;;;;;;;13.67;99.85;94552.25;5021388;28;20174;-79
2022/05/24 01:55:47;;;;;;;1.70;1.60;;;;;;;13.65;100.00;94531.56;5004125;28;20182;-81
2022/05/24 01:58:14;;;;;;;2.03;1.87;;;;;;;13.65;100.00;94547.22;5021025;28;20207;-80
2022/05/24 02:00:44;;;;;;;3.03;1.83;;;;;;;13.63;100.00;94551.81;5021732;28;20197;-81
2022/05/24 02:03:09;;;;;;;2.90;1.80;;;;;;;13.59;100.00;94547.97;5004980;28;20560;-80
2022/05/24 02:05:38;;;;;;;1.77;1.60;;;;;;;13.54;100.00;94551.16;5020027;28;20178;-80
2022/05/24 02:08:07;;;;;;;2.20;1.80;;;;;;;13.60;100.00;94547.81;5054447;28;20256;-80
2022/05/24 02:10:46;;;;;;;1.90;1.73;;;;;;;13.62;100.00;94560.66;5005100;28;20178;-79
2022/05/24 02:13:13;;;;;;;2.27;2.07;;;;;;;13.54;100.00;94550.34;5003683;28;20269;-80
2022/05/24 02:15:40;;;;;;;1.60;1.50;;;;;;;13.48;100.00;94549.31;5002717;28;20213;-80
2022/05/24 02:18:13;;;;;;;2.10;1.90;;;;;;;13.35;100.00;94551.03;5020969;28;20819;-80
2022/05/24 02:20:41;;;;;;;1.63;1.53;;;;;;;13.33;100.00;94540.75;5036405;28;20178;-81
2022/05/24 02:23:07;;;;;;;2.13;1.93;;;;;;;13.30;100.00;94543.75;5052692;28;20572;-79
2022/05/24 02:25:49;;;;;;;2.23;1.67;;;;;;;13.30;100.00;94546.34;5036010;28;20198;-80
2022/05/24 02:28:17;;;;;;;1.97;1.67;;;;;;;13.30;100.00;94552.38;5038271;28;20182;-80
2022/05/24 02:30:47;;;;;;;2.43;1.60;;;;;;;13.26;100.00;94545.94;5004444;28;20191;-81
2022/05/24 02:33:13;;;;;;;1.70;1.60;;;;;;;13.25;100.00;94544.31;5004407;28;20182;-80
2022/05/24 02:35:38;;;;;;;1.47;1.37;;;;;;;13.31;100.00;94548.78;5003886;28;20194;-79
2022/05/24 02:38:04;;;;;;;2.37;2.00;;;;;;;13.23;100.00;94543.69;5003909;28;20682;-80
2022/05/24 02:43:14;;;;;;;2.13;1.80;;;;;;;13.24;100.00;94524.44;5023071;28;20205;-80
2022/05/24 02:45:39;;;;;;;1.70;1.60;;;;;;;13.24;100.00;94528.84;5038070;28;20171;-80
2022/05/24 02:48:05;;;;;;;2.63;1.60;;;;;;;13.20;100.00;94525.03;5004320;28;20190;-79
2022/05/24 02:50:30;;;;;;;2.30;1.87;;;;;;;13.18;100.00;94535.59;5003782;28;20194;-81
2022/05/24 02:52:56;;;;;;;1.50;1.40;;;;;;;13.18;100.00;94532.19;5020156;28;20188;-79
2022/05/24 02:55:21;;;;;;;1.83;1.67;;;;;;;13.13;100.00;94534.53;5019515;28;20213;-80
2022/05/24 02:57:47;;;;;;;2.10;1.90;;;;;;;13.15;100.00;94522.94;5019348;28;20206;-79
2022/05/24 03:00:20;;;;;;;1.40;1.30;;;;;;;13.22;100.00;94529.03;5019790;28;20178;-81
2022/05/24 03:02:45;;;;;;;1.73;1.60;;;;;;;13.10;100.00;94527.91;5036498;28;20587;-81
2022/05/24 03:05:12;;;;;;;1.60;1.50;;;;;;;13.13;100.00;94524.13;5019796;28;20202;-80
2022/05/24 03:10:21;;;;;;;1.60;1.50;;;;;;;12.98;100.00;94526.78;5022538;28;20246;-79
2022/05/24 03:15:30;;;;;;;3.73;1.50;;;;;;;13.12;100.00;94554.59;5022232;28;20663;-79
2022/05/24 03:17:56;;;;;;;1.83;1.50;;;;;;;13.12;100.00;94554.59;5002994;28;20206;-79
2022/05/24 03:20:21;;;;;;;1.57;1.47;;;;;;;13.14;100.00;94557.81;5003006;28;20620;-79
2022/05/24 03:22:47;;;;;;;1.70;1.60;;;;;;;13.13;100.00;94550.19;5019776;28;20186;-80
2022/05/24 03:25:13;;;;;;;1.50;1.40;;;;;;;13.11;100.00;94555.59;5018652;28;20195;-80
2022/05/24 03:27:38;;;;;;;1.10;1.10;;;;;;;13.10;97.69;94551.38;5019308;28;20198;-80
2022/05/24 03:30:04;;;;;;;1.47;1.20;;;;;;;13.14;96.70;94551.78;5018986;28;20308;-80
2022/05/24 03:32:29;;;;;;;1.23;1.10;;;;;;;13.08;96.72;94542.94;5018551;28;20191;-79
2022/05/24 03:34:54;;;;;;;2.53;1.00;;;;;;;13.08;96.91;94532.53;5002610;28;20182;-79
2022/05/24 03:37:20;;;;;;;1.40;1.30;;;;;;;13.12;96.43;94536.34;5019857;28;20199;-80
2022/05/24 03:39:45;;;;;;;1.30;1.20;;;;;;;13.04;96.10;94532.06;5020021;28;20170;-80
2022/05/24 03:42:10;;;;;;;1.57;1.47;;;;;;;13.03;95.74;94530.47;5020514;28;20204;-79
2022/05/24 03:44:35;;;;;;;1.93;1.20;;;;;;;13.07;96.12;94530.06;5003119;28;20214;-79
2022/05/24 03:47:01;;;;;;;1.20;1.20;;;;;;;13.08;95.75;94542.94;5019686;28;20202;-79
2022/05/24 03:49:26;;;;;;;2.70;0.97;;;;;;;13.06;96.00;94539.69;5003357;28;20197;-80
2022/05/24 03:51:51;;;;;;;3.10;1.17;;;;;;;13.03;96.27;94553.91;5020715;28;20182;-80
2022/05/24 03:54:17;;;;;;;2.17;1.30;;;;;;;13.05;96.52;94553.72;5019218;28;20217;-79
2022/05/24 03:59:26;;;;;;;1.10;1.00;;;;;;;12.96;96.57;94553.03;5016094;28;20240;-80
2022/05/24 04:01:52;;;;;;;1.40;1.30;;;;;;;12.87;97.32;94550.75;5002424;28;20187;-80
2022/05/24 04:04:17;;;;;;;1.20;1.20;;;;;;;12.85;96.76;94547.53;4995979;28;20257;-80
2022/05/24 04:06:42;;;;;;;1.30;1.20;;;;;;;12.93;96.08;94542.19;4995614;28;20206;-81
2022/05/24 04:09:08;;;;;;;1.20;1.10;;;;;;;13.10;95.61;94540.94;4979171;28;20179;-81
2022/05/24 04:11:34;;;;;;;3.27;1.20;;;;;;;12.98;95.20;94538.03;4993626;28;20676;-82
2022/05/24 04:14:00;;;;;;;1.20;1.07;;;;;;;13.09;93.29;94548.97;4977595;28;20175;-82
2022/05/24 04:16:25;;;;;;;2.57;1.00;;;;;;;13.17;92.99;94547.03;4977950;28;20228;-83
2022/05/24 04:18:50;;;;;;;1.20;1.10;;;;;;;13.15;94.80;94549.00;4995066;28;20179;-83
2022/05/24 04:21:15;;;;;;;2.37;1.10;;;;;;;13.37;93.85;94551.63;5004914;28;20182;-81
2022/05/24 04:23:41;;;;;;;1.93;1.13;;;;;;;13.39;93.93;94560.06;5029698;28;20186;-81
2022/05/24 04:26:06;;;;;;;1.30;1.20;;;;;;;13.49;93.75;94560.53;4996679;28;20221;-82
2022/05/24 04:28:32;;;;;;;1.37;1.27;;;;;;;13.52;94.29;94571.41;5001449;28;20186;-79
2022/05/24 04:30:57;;;;;;;1.07;1.07;;;;;;;13.70;93.39;94563.13;5007043;28;20190;-80
2022/05/24 04:33:22;;;;;;;1.40;1.23;;;;;;;13.66;93.75;94567.09;5004817;28;20171;-81
2022/05/24 04:35:48;;;;;;;3.97;1.30;;;;;;;13.63;93.75;94577.91;5015192;28;20170;-81
2022/05/24 04:38:13;;;;;;;2.53;1.10;;;;;;;13.79;93.14;94585.47;4996883;28;20262;-79
2022/05/24 04:43:22;;;;;;;2.10;1.20;;;;;;;13.96;92.30;94600.78;5017109;28;20251;-80
2022/05/24 04:45:48;;;;;;;2.30;1.30;;;;;;;13.86;92.81;94609.78;4998173;28;20186;-80
2022/05/24 04:48:13;;;;;;;1.83;1.10;;;;;;;13.70;93.03;94606.66;5014242;28;20541;-80
2022/05/24 04:50:38;;;;;;;1.47;1.10;;;;;;;13.49;93.79;94610.91;5014742;28;20251;-79
2022/05/24 04:53:06;;;;;;;2.60;1.00;;;;;;;13.36;94.92;94610.00;5032492;28;20179;-79
2022/05/24 04:55:31;;;;;;;2.03;1.20;;;;;;;13.33;95.30;94595.50;5014533;28;20180;-80
2022/05/24 04:57:56;;;;;;;1.60;1.23;;;;;;;13.39;95.23;94602.59;5015097;28;20206;-80
2022/05/24 05:00:23;;;;;;;2.17;1.10;;;;;;;13.47;95.76;94614.69;5016225;28;20175;-82
2022/05/24 05:02:49;;;;;;;1.83;1.27;;;;;;;13.40;96.73;94625.06;4998036;28;20170;-78
2022/05/24 05:05:15;;;;;;;6.67;1.50;;;;;;;13.45;96.56;94621.91;5010573;28;20214;-79
2022/05/24 05:07:42;;;;;;;2.20;1.90;;;;;;;13.50;96.91;94624.75;5012965;28;20252;-78
2022/05/24 05:10:09;;;;;;;5.53;1.93;;;;;;;13.68;96.25;94606.84;5000244;28;20277;-77
2022/05/24 05:12:35;;;;;;;2.27;1.37;;;;;;;13.87;95.16;94600.97;5015975;28;20193;-78
2022/05/24 05:15:00;;;;;;;1.83;1.47;;;;;;;14.12;93.91;94614.34;5041078;28;20163;-79
2022/05/24 05:17:25;;;;;;;2.40;2.07;;;;;;;14.22;93.12;94621.03;5028509;28;20234;-77
2022/05/24 05:19:51;;;;;;;4.90;1.67;;;;;;;14.54;91.80;94623.06;5001548;28;20545;-77
2022/05/24 05:22:18;;;;;;;1.50;1.40;;;;;;;14.65;90.60;94625.09;5016462;28;20257;-79
2022/05/24 05:24:44;;;;;;;3.03;1.60;;;;;;;14.88;90.18;94640.47;5027229;28;20276;-78
2022/05/24 05:27:09;;;;;;;1.83;1.30;;;;;;;14.65;90.84;94634.75;5011089;28;20264;-78
2022/05/24 05:32:20;;;;;;;2.03;1.50;;;;;;;14.82;89.78;94630.81;5036591;28;20250;-78
2022/05/24 05:34:47;;;;;;;1.60;1.20;;;;;;;15.28;88.23;94645.81;5056815;28;20585;-80
2022/05/24 05:37:12;;;;;;;1.73;1.63;;;;;;;15.41;86.98;94634.56;5021690;28;20198;-78
2022/05/24 05:39:37;;;;;;;1.47;1.30;;;;;;;15.66;86.02;94626.97;5035671;28;20592;-79
2022/05/24 05:42:03;;;;;;;2.07;1.40;;;;;;;15.63;85.38;94635.22;5003886;28;20179;-80
2022/05/24 05:44:29;;;;;;;3.67;1.30;;;;;;;15.55;86.34;94634.41;5004556;28;20189;-79
2022/05/24 05:46:55;;;;;;;2.83;1.47;;;;;;;15.42;86.96;94631.75;5038908;28;20520;-79
2022/05/24 05:49:20;;;;;;;3.57;1.37;;;;;;;15.18;88.14;94637.53;5038752;28;20166;-77
2022/05/24 05:51:45;;;;;;;5.93;1.30;;;;;;;15.07;88.77;94636.31;5023852;28;20186;-80
2022/05/24 05:54:11;;;;;;;1.97;1.50;;;;;;;14.93;89.88;94643.31;5021731;28;20182;-80
2022/05/24 05:56:39;;;;;;;1.87;1.27;;;;;;;14.86;90.65;94647.72;5038942;28;20210;-79
2022/05/24 05:59:04;;;;;;;2.67;1.60;;;;;;;14.72;90.78;94644.22;5005225;28;20214;-79
2022/05/24 06:01:31;;;;;;;3.70;1.60;;;;;;;14.80;91.55;94648.50;5021374;28;20225;-79
2022/05/24 06:03:57;;;;;;;3.20;1.60;;;;;;;14.93;90.77;94652.94;5030380;28;20202;-79
2022/05/24 06:06:24;;;;;;;1.53;1.40;;;;;;;14.95;90.66;94650.97;5012784;28;20198;-79
2022/05/24 06:08:50;;;;;;;2.50;1.40;;;;;;;14.91;91.03;94653.16;5021718;28;20240;-80
2022/05/24 06:11:15;;;;;;;3.40;1.40;;;;;;;14.85;91.01;94656.56;5005058;28;20179;-78
2022/05/24 06:13:41;;;;;;;1.97;1.60;;;;;;;14.79;90.53;94664.38;5004370;28;20175;-76
2022/05/24 06:16:06;;;;;;;2.20;1.30;;;;;;;14.67;92.07;94677.19;5020568;28;20620;-79
2022/05/24 06:18:31;;;;;;;1.93;1.40;;;;;;;14.73;92.16;94684.25;5020757;28;20276;-78
2022/05/24 06:20:57;;;;;;;3.40;2.00;;;;;;;14.56;95.37;94699.44;5022507;28;20178;-77
2022/05/24 06:23:22;;;;;;;4.37;2.20;;;;;;;14.57;95.54;94714.09;5014246;28;20210;-79
2022/05/24 06:25:47;;;;;;;7.03;2.20;;;;;;;14.35;98.19;94723.78;5019540;28;20661;-80
2022/05/24 06:28:14;;;;;;;4.90;1.67;;;;;;;14.27;97.96;94742.22;5005119;28;20229;-79
2022/05/24 06:30:40;;;;;;;2.37;1.30;;;;;;;13.67;96.72;94766.97;5020449;28;20273;-79
2022/05/24 06:33:06;;;;;;;2.23;0.70;;;;;;;13.27;97.04;94784.81;5014392;28;20214;-78
2022/05/24 06:35:31;;;;;;;2.33;0.70;;;;;;;12.95;91.87;94785.97;5021082;28;20178;-77
2022/05/24 06:37:56;;;;;;;1.37;0.50;;;;;;;12.62;91.35;94769.88;5011975;28;20559;-78
2022/05/24 06:40:22;;;;;;;1.50;0.60;;;;;;;12.71;91.41;94768.78;5036996;28;20182;-78
2022/05/24 06:42:47;;;;;;;0.97;0.60;;;;;;;12.43;89.77;94771.22;5020000;28;20191;-79
2022/05/24 06:45:13;;;;;;;1.60;0.53;;;;;;;12.61;89.64;94776.06;4999049;28;20227;-80
2022/05/24 06:47:38;;;;;;;0.80;0.40;;;;;;;12.55;89.23;94784.63;5042055;28;20233;-80
2022/05/24 06:50:04;;;;;;;1.97;0.60;;;;;;;12.55;88.49;94797.66;5037501;28;20185;-78
2022/05/24 06:52:30;;;;;;;2.33;0.50;;;;;;;12.61;89.10;94793.50;5055062;28;20177;-79
2022/05/24 06:54:55;;;;;;;1.10;0.50;;;;;;;12.58;88.95;94788.66;5003702;28;20201;-78
2022/05/24 06:57:20;;;;;;;3.33;0.70;;;;;;;12.66;89.48;94799.81;5001929;28;20209;-77
2022/05/24 07:02:31;;;;;;;0.67;0.43;;;;;;;13.21;87.03;94795.97;5045359;28;20212;-77
2022/05/24 07:04:59;;;;;;;1.70;0.70;;;;;;;16.29;73.36;94787.13;5019572;28;20706;-79
2022/05/24 07:07:24;;;;;;;2.30;0.60;;;;;;;18.92;63.92;94786.19;5038128;28;20230;-79
2022/05/24 07:09:51;;;;;;;1.73;0.40;;;;;;;19.05;61.80;94786.06;5032897;28;20648;-78
2022/05/24 07:12:18;;;;;;;1.75;0.70;;;;;;;18.08;63.34;94785.63;5037094;28;20182;-79
2022/05/24 07:14:43;;;;;;;1.60;0.40;;;;;;;16.67;67.98;94777.63;5002697;28;20183;-78
2022/05/24 07:17:08;;;;;;;2.45;0.40;;;;;;;16.02;72.22;94774.00;5017920;28;20202;-78
2022/05/24 07:19:33;;;;;;;0.40;0.40;;;;;;;15.73;74.23;94780.41;5019798;28;20190;-77
2022/05/24 07:21:59;;;;;;;2.67;0.60;;;;;;;15.77;75.32;94786.06;5036979;28;20232;-77
2022/05/24 07:24:24;;;;;;;0.63;0.50;;;;;;;15.66;75.26;94784.00;5036112;28;20202;-78
2022/05/24 07:26:49;;;;;;;1.05;0.57;;;;;;;15.52;75.27;94778.69;5018714;28;20214;-79
2022/05/24 07:29:15;;;;;;;0.50;0.33;;;;;;;14.65;77.71;94792.34;5055340;28;20320;-79
2022/05/24 07:31:40;;;;;;;0.40;0.40;;;;;;;14.42;78.99;94805.63;5002435;28;20770;-79
2022/05/24 07:34:06;;;;;;;0.73;0.50;;;;;;;13.88;78.27;94800.94;5025588;28;20291;-78
2022/05/24 07:36:31;;;;;;;0.93;0.50;;;;;;;14.15;79.07;94816.84;5036344;28;20198;-79
2022/05/24 07:38:58;;;;;;;0.80;0.40;;;;;;;13.57;79.34;94813.44;5032347;28;20212;-78
2022/05/24 07:47:06;;;;;;;1.90;0.40;;;;;;;13.57;78.26;94835.09;5032823;28;20332;-78
2022/05/24 07:49:33;;;;;;;0.80;0.70;;;;;;;13.62;79.07;94831.97;5027624;28;20186;-78
2022/05/24 07:51:58;;;;;;;0.93;0.40;;;;;;;13.27;78.29;94834.34;5020536;28;20560;-78
2022/05/24 07:54:24;;;;;;;0.77;0.50;;;;;;;13.61;78.08;94840.78;5011559;28;20182;-78
2022/05/24 07:56:49;;;;;;;0.50;0.50;;;;;;;13.66;77.99;94851.47;5002634;28;20248;-78
2022/05/24 07:59:15;;;;;;;0.63;0.40;;;;;;;13.94;76.99;94830.69;5001628;28;20178;-79
2022/05/24 08:01:40;;;;;;;2.20;0.40;;;;;;;14.10;75.12;94851.31;5017951;28;20190;-78
2022/05/24 08:04:05;;;;;;;0.47;0.40;;;;;;;14.34;74.13;94852.75;5034240;28;20213;-78
2022/05/24 08:06:31;;;;;;;0.90;0.50;;;;;;;14.45;73.67;94860.13;5012543;28;20202;-79
2022/05/24 08:08:56;;;;;;;0.70;0.60;;;;;;;14.75;73.16;94865.16;5036655;28;20544;-79
2022/05/24 08:11:21;;;;;;;0.40;0.40;;;;;;;15.04;72.94;94858.16;5025380;28;20600;-79
2022/05/24 08:13:47;;;;;;;2.93;0.40;;;;;;;14.83;70.66;94870.25;5034477;28;20182;-79
2022/05/24 08:16:12;;;;;;;0.97;0.43;;;;;;;15.52;69.43;94862.44;5026273;28;20209;-80
2022/05/24 08:18:37;;;;;;;1.23;0.90;;;;;;;14.97;70.76;94865.94;5018529;28;20184;-81
2022/05/24 08:21:03;;;;;;;0.97;0.57;;;;;;;16.03;68.17;94864.66;5032102;28;20190;-78
2022/05/24 08:23:29;;;;;;;0.93;0.50;;;;;;;16.46;66.72;94874.81;5020313;28;20329;-78
2022/05/24 08:25:54;;;;;;;1.67;0.40;;;;;;;16.77;64.21;94876.06;4996531;28;20198;-77
2022/05/24 08:28:19;;;;;;;0.40;0.40;;;;;;;16.85;65.27;94878.50;5000979;28;20185;-79
2022/05/24 08:30:45;;;;;;;0.28;0.28;;;;;;;16.58;64.46;94878.44;5034570;28;20201;-78
2022/05/24 08:33:14;;;;;;;1.65;0.50;;;;;;;16.90;65.17;94870.84;4996291;28;20560;-77
2022/05/24 08:35:40;;;;;;;0.85;0.40;;;;;;;16.61;64.80;94883.31;4995024;28;20290;-78
2022/05/24 08:38:06;;;;;;;0.68;0.30;;;;;;;15.45;67.96;94879.09;4997779;28;20218;-78
2022/05/24 08:40:34;;;;;;;0.90;0.60;;;;;;;16.00;67.74;94882.59;5017159;28;20205;-78
2022/05/24 08:43:05;;;;;;;1.60;0.60;;;;;;;15.91;67.01;94886.38;5014508;28;20179;-77
2022/05/24 08:48:28;;;;;;;0.63;0.50;;;;;;;16.34;65.36;94886.88;5036197;28;20257;-79
2022/05/24 08:51:00;;;;;;;0.40;0.40;;;;;;;16.63;65.18;94897.03;4999409;28;21147;-79
2022/05/24 08:53:36;;;;;;;0.77;0.60;;;;;;;15.77;66.16;94909.09;4997100;28;20196;-78
2022/05/24 08:56:04;;;;;;;0.73;0.50;;;;;;;16.06;65.55;94906.16;5012894;28;20213;-77
2022/05/24 08:58:34;;;;;;;2.22;0.65;;;;;;;16.57;65.42;94907.50;5012580;28;20362;-79
2022/05/24 09:00:59;;;;;;;2.78;0.60;;;;;;;16.78;63.65;94907.31;5026068;28;20223;-78
2022/05/24 09:03:26;;;;;;;0.40;0.35;;;;;;;16.61;63.01;94906.09;5014754;28;20230;-78
2022/05/24 09:06:26;;;;;;;0.43;0.38;;;;;;;16.58;62.26;94902.03;5031862;28;20259;-77
2022/05/24 09:09:14;;;;;;;1.30;0.60;;;;;;;16.71;60.80;94901.28;4997211;28;20685;-78
2022/05/24 09:12:04;;;;;;;2.78;0.75;;;;;;;16.97;61.49;94893.44;5012379;28;20693;-79
2022/05/24 09:14:43;;;;;;;0.85;0.47;;;;;;;17.00;61.15;94900.06;4996266;28;20273;-80
2022/05/24 09:17:20;;;;;;;0.65;0.50;;;;;;;17.02;61.41;94911.16;5011064;28;20206;-78
2022/05/24 09:19:46;;;;;;;0.73;0.50;;;;;;;16.89;61.82;94926.91;5036703;28;20200;-79
2022/05/24 09:22:11;;;;;;;2.38;0.40;;;;;;;16.23;63.11;94927.56;4996947;28;20186;-78
2022/05/24 09:24:42;;;;;;;0.40;0.40;;;;;;;16.53;63.59;94935.94;5013182;28;20217;-79
2022/05/24 09:27:15;;;;;;;0.77;0.45;;;;;;;16.62;62.05;94932.09;5032117;28;20310;-78
2022/05/24 09:30:21;;;;;;;0.70;0.50;;;;;;;16.58;61.29;94930.06;5009568;28;20591;-79
2022/05/24 09:32:47;;;;;;;2.00;0.60;;;;;;;16.38;61.49;94936.09;5013744;28;20174;-78
2022/05/24 09:35:15;;;;;;;0.52;0.47;;;;;;;16.72;61.72;94928.31;5038166;28;20675;-77
2022/05/24 09:37:44;;;;;;;1.08;0.50;;;;;;;16.93;58.52;94933.34;5030829;28;20939;-77
2022/05/24 09:40:17;;;;;;;2.15;0.73;;;;;;;16.74;61.47;94929.72;4996788;28;20186;-78
2022/05/24 09:42:42;;;;;;;1.10;0.50;;;;;;;16.79;61.46;94947.50;5014200;28;20493;-78
2022/05/24 09:45:18;;;;;;;1.48;0.40;;;;;;;16.94;60.27;94934.97;5031064;28;20236;-77
2022/05/24 09:47:43;;;;;;;0.40;0.40;;;;;;;16.99;60.15;94932.56;5017477;28;20206;-78
2022/05/24 09:50:14;;;;;;;1.90;0.60;;;;;;;16.89;61.32;94940.03;5045944;28;20263;-78
2022/05/24 09:52:41;;;;;;;0.70;0.50;;;;;;;16.64;58.36;94929.28;5011157;28;20581;-78
2022/05/24 09:55:06;;;;;;;1.60;0.98;;;;;;;16.67;59.50;94940.16;5013590;28;20248;-79
2022/05/24 09:57:33;;;;;;;2.60;0.80;;;;;;;16.95;60.21;94952.31;5020690;28;20562;-79
2022/05/24 10:00:01;;;;;;;0.93;0.47;;;;;;;17.15;60.07;94955.78;5029115;28;20353;-78
2022/05/24 10:02:30;;;;;;;2.67;0.60;;;;;;;17.02;59.16;94953.13;5017650;28;20558;-78
2022/05/24 10:04:56;;;;;;;0.68;0.55;;;;;;;17.07;58.61;94960.41;4994676;28;20739;-79
2022/05/24 10:07:26;;;;;;;0.40;0.40;;;;;;;16.86;59.57;94969.25;5004162;28;20202;-77
2022/05/24 10:09:59;;;;;;;1.20;0.60;;;;;;;16.50;59.37;94965.13;5046214;28;20687;-78
2022/05/24 10:12:33;;;;;;;0.85;0.60;;;;;;;16.20;59.54;94961.22;5000458;28;20186;-80
2022/05/24 10:15:20;;;;;;;1.90;0.60;;;;;;;16.23;61.41;94960.81;5030231;28;20177;-79
2022/05/24 10:18:04;;;;;;;2.15;0.68;;;;;;;15.69;62.63;94961.59;5010818;28;20289;-77
2022/05/24 10:20:40;;;;;;;1.65;0.57;;;;;;;16.41;62.07;94966.31;5036628;28;20239;-79
2022/05/24 10:23:11;;;;;;;0.80;0.60;;;;;;;16.10;61.53;94970.25;5020491;28;20189;-77
2022/05/24 10:26:00;;;;;;;0.80;0.60;;;;;;;16.63;62.58;94959.94;5003205;28;20194;-78
2022/05/24 10:29:14;;;;;;;2.50;0.60;;;;;;;17.70;60.06;94966.84;5005607;28;20214;-79
2022/05/24 10:31:53;;;;;;;1.35;0.50;;;;;;;17.99;57.93;94969.97;4931761;29;20190;-79
2022/05/24 10:40:19;;;;;;;0.98;0.55;;;;;;;17.54;57.51;94975.09;4927527;29;20253;-80
2022/05/24 10:43:03;;;;;;;1.70;0.70;;;;;;;16.95;58.23;94976.72;4944710;29;20646;-79
2022/05/24 10:45:49;;;;;;;0.95;0.60;;;;;;;16.96;60.03;94981.00;4921112;29;20198;-79
2022/05/24 10:48:22;;;;;;;2.67;0.60;;;;;;;16.85;60.15;94976.31;4925784;29;20205;-77
2022/05/24 10:50:55;;;;;;;1.30;0.98;;;;;;;16.88;60.02;94975.13;4917126;29;20270;-78
2022/05/24 10:53:32;;;;;;;2.30;0.50;;;;;;;17.32;58.54;94977.16;4912164;29;20188;-79
2022/05/24 10:56:03;;;;;;;0.60;0.60;;;;;;;17.45;59.32;94971.88;4925081;29;20597;-79
2022/05/24 10:58:33;;;;;;;1.02;0.65;;;;;;;17.85;57.85;94963.97;4939449;29;20189;-77
2022/05/24 11:01:17;;;;;;;2.13;0.73;;;;;;;17.40;55.04;94960.38;4913892;29;20281;-79
2022/05/24 11:03:45;;;;;;;1.75;0.60;;;;;;;17.78;56.57;94966.59;4945486;29;20224;-77
2022/05/24 11:06:31;;;;;;;1.50;0.60;;;;;;;18.08;56.33;94956.41;4902625;28;20213;-79
2022/05/24 11:09:10;;;;;;;0.90;0.70;;;;;;;18.14;54.26;94964.47;5013892;28;20182;-80
2022/05/24 11:11:45;;;;;;;2.67;0.73;;;;;;;18.57;53.64;94960.22;5004061;28;20559;-80
2022/05/24 11:14:36;;;;;;;4.20;0.70;;;;;;;19.28;53.23;94969.69;5034265;28;20173;-80
2022/05/24 11:17:02;;;;;;;1.38;0.50;;;;;;;18.96;51.14;94953.91;5003533;28;20209;-81
2022/05/24 11:19:35;;;;;;;2.35;0.57;;;;;;;18.92;49.61;94952.75;5034418;28;20181;-80
2022/05/24 11:22:09;;;;;;;2.17;0.57;;;;;;;18.59;51.53;94965.25;5015460;28;20183;-79
2022/05/24 11:24:46;;;;;;;1.00;0.60;;;;;;;18.01;53.10;94957.44;4999144;28;20206;-80
2022/05/24 11:27:14;;;;;;;0.50;0.47;;;;;;;18.45;52.64;94972.41;5016403;28;20292;-80
2022/05/24 11:29:50;;;;;;;0.95;0.55;;;;;;;18.34;51.98;94966.00;5000177;28;20178;-79
2022/05/24 11:32:44;;;;;;;1.02;0.75;;;;;;;18.99;51.75;94949.25;5015779;28;20174;-81
2022/05/24 11:35:23;;;;;;;1.63;0.60;;;;;;;18.92;49.11;94952.75;5017416;28;20317;-79
2022/05/24 11:37:56;;;;;;;1.60;0.60;;;;;;;19.68;50.11;94948.25;5000509;28;20258;-80
2022/05/24 11:40:36;;;;;;;1.83;0.60;;;;;;;19.63;48.93;94940.22;4990365;28;20179;-80
2022/05/24 11:43:38;;;;;;;1.55;0.55;;;;;;;19.99;45.54;94944.69;4998319;28;20175;-79
2022/05/24 11:46:27;;;;;;;1.30;0.60;;;;;;;20.67;47.71;94951.56;5013930;28;20207;-79
2022/05/24 11:48:53;;;;;;;1.52;0.65;;;;;;;20.08;46.38;94948.66;4996602;28;20653;-81
2022/05/24 11:51:37;;;;;;;2.58;0.70;;;;;;;20.01;46.51;94959.25;4997952;28;20209;-81
2022/05/24 11:54:05;;;;;;;0.77;0.47;;;;;;;19.87;47.81;94957.78;4996682;28;20595;-81
2022/05/24 11:56:31;;;;;;;0.40;0.40;;;;;;;19.74;45.69;94950.84;4996269;28;20845;-78
2022/05/24 11:59:00;;;;;;;2.33;0.82;;;;;;;19.35;46.66;94959.91;4996314;28;20183;-80
2022/05/24 12:01:35;;;;;;;2.47;1.25;;;;;;;19.32;48.31;94965.56;5013391;28;20183;-81
2022/05/24 12:09:59;;;;;;;3.53;0.65;;;;;;;19.20;49.21;94959.41;5034733;28;20278;-77
2022/05/24 12:12:57;;;;;;;1.65;0.80;;;;;;;19.44;47.63;94974.41;5035615;28;20186;-78
2022/05/24 12:15:24;;;;;;;2.25;0.60;;;;;;;18.89;49.64;94974.19;4999959;28;20182;-79
2022/05/24 12:17:58;;;;;;;1.40;0.80;;;;;;;18.66;48.54;94985.28;5001377;28;20199;-80
2022/05/24 12:20:32;;;;;;;1.88;0.63;;;;;;;18.62;49.10;94978.78;5034112;28;20183;-78
2022/05/24 12:23:04;;;;;;;2.47;1.08;;;;;;;19.42;47.50;94967.72;5016400;28;20195;-78
2022/05/24 12:25:55;;;;;;;2.05;0.60;;;;;;;19.59;47.64;94975.91;5032133;28;20202;-78